createdAt,value
2023-05-10T00:01:02.792Z,15.09
2023-05-10T00:03:07.173Z,15.03
2023-05-10T00:05:10.419Z,14.85
2023-05-10T00:07:13.317Z,15.00
2023-05-10T00:09:16.457Z,14.92
2023-05-10T00:11:21.572Z,15.05
2023-05-10T00:13:26.098Z,15.03
2023-05-10T00:15:31.450Z,14.97
2023-05-10T00:17:34.382Z,15.07
2023-05-10T00:19:38.845Z,15.13
2023-05-10T00:21:41.952Z,15.01
2023-05-10T00:23:45.015Z,15.10
2023-05-10T00:25:47.915Z,15.01
2023-05-10T00:27:51.560Z,14.90
2023-05-10T00:29:54.527Z,14.76
2023-05-10T00:31:57.579Z,14.69
2023-05-10T00:34:00.718Z,14.73
2023-05-10T00:36:08.379Z,14.82
2023-05-10T00:38:12.112Z,14.89
2023-05-10T00:40:16.024Z,14.85
2023-05-10T00:42:23.478Z,14.97
2023-05-10T00:44:28.637Z,14.74
2023-05-10T00:46:32.736Z,14.97
2023-05-10T00:48:35.908Z,14.91
2023-05-10T00:50:39.305Z,15.03
2023-05-10T00:52:45.180Z,14.99
2023-05-10T00:54:48.670Z,14.97
2023-05-10T00:56:51.692Z,15.00
2023-05-10T00:58:54.700Z,15.15
2023-05-10T01:01:00.282Z,15.17
2023-05-10T01:03:03.291Z,15.21
2023-05-10T01:05:07.193Z,15.23
2023-05-10T01:07:10.094Z,15.23
2023-05-10T01:09:15.066Z,15.30
2023-05-10T01:11:18.101Z,15.26
2023-05-10T01:13:29.214Z,15.31
2023-05-10T01:15:32.885Z,15.20
2023-05-10T01:17:36.444Z,15.14
2023-05-10T01:19:39.461Z,15.14
2023-05-10T01:21:48.355Z,15.15
2023-05-10T01:24:17.755Z,15.06
2023-05-10T01:26:55.039Z,15.18
2023-05-10T01:29:13.025Z,15.17
2023-05-10T01:31:25.334Z,15.25
2023-05-10T01:33:32.719Z,15.27
2023-05-10T01:35:40.201Z,15.28
2023-05-10T01:37:44.977Z,15.15
2023-05-10T01:39:50.245Z,15.20
2023-05-10T01:41:57.080Z,15.19
2023-05-10T01:44:06.600Z,15.20
2023-05-10T01:46:14.905Z,15.10
2023-05-10T01:48:18.832Z,15.11
2023-05-10T01:50:28.344Z,15.22
2023-05-10T01:52:35.150Z,15.15
2023-05-10T01:54:41.553Z,15.19
2023-05-10T01:56:46.188Z,15.26
2023-05-10T01:58:50.885Z,15.01
2023-05-10T02:00:54.787Z,14.92
2023-05-10T02:02:57.949Z,15.08
2023-05-10T02:05:01.534Z,15.13
2023-05-10T02:07:06.312Z,15.17
2023-05-10T02:09:10.108Z,15.18
2023-05-10T02:11:16.975Z,15.23
2023-05-10T02:13:20.507Z,15.26
2023-05-10T02:15:25.779Z,15.28
2023-05-10T02:17:29.711Z,15.27
2023-05-10T02:19:33.619Z,15.27
2023-05-10T02:21:37.446Z,15.27
2023-05-10T02:23:41.928Z,15.15
2023-05-10T02:25:45.732Z,15.26
2023-05-10T02:27:49.348Z,15.31
2023-05-10T02:29:52.906Z,15.24
2023-05-10T02:31:56.897Z,15.28
2023-05-10T02:34:01.166Z,15.29
2023-05-10T02:36:04.930Z,15.30
2023-05-10T02:38:09.186Z,15.26
2023-05-10T02:40:14.730Z,15.31
2023-05-10T02:42:19.774Z,15.26
2023-05-10T02:44:24.583Z,15.26
2023-05-10T02:46:27.715Z,15.05
2023-05-10T02:48:33.327Z,15.22
2023-05-10T02:50:37.652Z,15.23
2023-05-10T02:52:42.872Z,15.22
2023-05-10T02:54:48.087Z,15.14
2023-05-10T02:56:54.851Z,15.24
2023-05-10T02:58:57.906Z,15.24
2023-05-10T03:01:02.065Z,15.21
2023-05-10T03:03:05.467Z,15.25
2023-05-10T03:05:09.316Z,15.16
2023-05-10T03:07:12.835Z,15.21
2023-05-10T03:09:17.297Z,15.14
2023-05-10T03:11:31.521Z,15.20
2023-05-10T03:13:44.870Z,15.19
2023-05-10T03:15:57.894Z,15.08
2023-05-10T03:18:05.314Z,15.14
2023-05-10T03:20:12.646Z,15.03
2023-05-10T03:22:22.262Z,15.07
2023-05-10T03:24:29.913Z,15.08
2023-05-10T03:26:35.323Z,15.07
2023-05-10T03:28:47.947Z,15.05
2023-05-10T03:30:51.773Z,15.08
2023-05-10T03:32:55.210Z,15.08
2023-05-10T03:34:58.174Z,15.04
2023-05-10T03:37:02.777Z,15.02
2023-05-10T03:39:07.943Z,14.78
2023-05-10T03:41:11.031Z,14.74
2023-05-10T03:43:14.201Z,14.78
2023-05-10T03:45:18.779Z,14.89
2023-05-10T03:47:22.021Z,14.91
2023-05-10T03:49:25.073Z,14.91
2023-05-10T03:51:29.061Z,14.92
2023-05-10T03:53:32.298Z,14.84
2023-05-10T03:55:37.348Z,14.89
2023-05-10T03:57:40.324Z,14.83
2023-05-10T03:59:44.030Z,14.84
2023-05-10T04:01:48.638Z,14.73
2023-05-10T04:03:51.875Z,14.59
2023-05-10T04:06:01.575Z,14.59
2023-05-10T04:08:04.875Z,14.66
2023-05-10T04:10:08.736Z,14.74
2023-05-10T04:12:11.981Z,14.83
2023-05-10T04:14:14.887Z,14.70
2023-05-10T04:16:17.903Z,14.63
2023-05-10T04:18:22.153Z,14.65
2023-05-10T04:20:25.035Z,14.57
2023-05-10T04:22:28.746Z,14.38
2023-05-10T04:24:31.957Z,14.51
2023-05-10T04:26:34.836Z,14.59
2023-05-10T04:28:37.891Z,14.52
2023-05-10T04:30:41.420Z,14.68
2023-05-10T04:32:44.464Z,14.69
2023-05-10T04:34:48.911Z,14.73
2023-05-10T04:36:51.875Z,14.76
2023-05-10T04:38:54.741Z,14.64
2023-05-10T04:41:06.178Z,14.72
2023-05-10T04:43:09.423Z,14.66
2023-05-10T04:45:13.055Z,14.60
2023-05-10T04:47:17.247Z,14.68
2023-05-10T04:49:20.319Z,14.70
2023-05-10T04:51:24.606Z,14.82
2023-05-10T04:53:27.754Z,14.64
2023-05-10T04:55:30.736Z,14.69
2023-05-10T04:57:33.642Z,14.68
2023-05-10T04:59:38.300Z,14.67
2023-05-10T05:01:41.702Z,14.56
2023-05-10T05:03:44.903Z,14.70
2023-05-10T05:05:48.137Z,14.65
2023-05-10T05:07:55.176Z,14.59
2023-05-10T05:09:58.235Z,14.52
2023-05-10T05:12:01.570Z,14.67
2023-05-10T05:14:04.470Z,14.64
2023-05-10T05:16:08.025Z,14.51
2023-05-10T05:18:11.065Z,14.66
2023-05-10T05:20:14.769Z,14.63
2023-05-10T05:22:19.569Z,14.64
2023-05-10T05:24:24.145Z,14.55
2023-05-10T05:26:27.459Z,14.36
2023-05-10T05:28:33.894Z,14.57
2023-05-10T05:30:36.823Z,14.72
2023-05-10T05:32:39.766Z,14.71
2023-05-10T05:34:42.745Z,14.44
2023-05-10T05:36:45.654Z,14.73
2023-05-10T05:38:48.722Z,14.70
2023-05-10T05:40:53.106Z,14.82
2023-05-10T05:42:56.423Z,14.70
2023-05-10T05:44:59.379Z,14.73
2023-05-10T05:47:02.736Z,14.43
2023-05-10T05:49:06.436Z,14.72
2023-05-10T05:51:09.335Z,14.68
2023-05-10T05:53:12.274Z,14.80
2023-05-10T05:55:15.611Z,14.66
2023-05-10T05:57:20.030Z,14.80
2023-05-10T05:59:22.974Z,14.93
2023-05-10T06:01:25.819Z,15.00
2023-05-10T06:03:28.926Z,14.79
2023-05-10T06:05:31.916Z,14.97
2023-05-10T06:07:34.807Z,14.85
2023-05-10T06:09:38.088Z,14.80
2023-05-10T06:11:40.995Z,14.90
2023-05-10T06:13:45.590Z,15.14
2023-05-10T06:15:48.759Z,15.21
2023-05-10T06:17:52.020Z,15.10
2023-05-10T06:19:55.295Z,15.09
2023-05-10T06:21:58.278Z,15.05
2023-05-10T06:24:01.155Z,15.13
2023-05-10T06:26:04.181Z,15.15
2023-05-10T06:28:07.092Z,15.40
2023-05-10T06:30:14.221Z,15.48
2023-05-10T06:32:17.232Z,15.64
2023-05-10T06:34:20.269Z,15.65
2023-05-10T06:36:24.403Z,15.49
2023-05-10T06:38:27.390Z,15.47
2023-05-10T06:40:30.512Z,15.46
2023-05-10T06:42:33.523Z,15.52
2023-05-10T06:44:36.745Z,15.80
2023-05-10T06:46:41.106Z,15.86
2023-05-10T06:48:44.291Z,15.98
2023-05-10T06:50:47.306Z,15.99
2023-05-10T06:52:52.397Z,15.95
2023-05-10T06:54:56.000Z,15.88
2023-05-10T06:56:58.848Z,15.83
2023-05-10T06:59:01.767Z,15.35
2023-05-10T07:01:06.273Z,15.37
2023-05-10T07:03:10.877Z,15.64
2023-05-10T07:05:14.005Z,15.68
2023-05-10T07:07:17.376Z,15.82
2023-05-10T07:09:20.516Z,15.54
2023-05-10T07:11:23.583Z,15.79
2023-05-10T07:13:26.848Z,15.94
2023-05-10T07:15:30.080Z,15.70
2023-05-10T07:17:34.383Z,15.80
2023-05-10T07:19:38.921Z,15.66
2023-05-10T07:21:44.118Z,15.72
2023-05-10T07:23:47.318Z,16.02
2023-05-10T07:25:50.875Z,16.09
2023-05-10T07:27:53.727Z,16.22
2023-05-10T07:29:57.569Z,16.58
2023-05-10T07:32:00.582Z,16.97
2023-05-10T07:34:03.567Z,17.31
2023-05-10T07:36:08.293Z,18.79
2023-05-10T07:38:12.029Z,19.05
2023-05-10T07:40:15.081Z,18.49
2023-05-10T07:42:18.021Z,18.52
2023-05-10T07:44:21.379Z,18.66
2023-05-10T07:46:24.556Z,18.48
2023-05-10T07:48:27.952Z,18.73
2023-05-10T07:50:31.467Z,19.25
2023-05-10T07:52:36.046Z,19.66
2023-05-10T07:54:39.236Z,20.76
2023-05-10T07:56:46.521Z,20.73
2023-05-10T07:58:49.572Z,20.31
2023-05-10T08:00:52.762Z,19.75
2023-05-10T08:02:56.091Z,20.48
2023-05-10T08:04:59.358Z,20.08
2023-05-10T08:07:02.512Z,20.00
2023-05-10T08:09:07.297Z,19.50
2023-05-10T08:11:10.284Z,19.44
2023-05-10T08:13:13.399Z,18.95
2023-05-10T08:15:17.238Z,18.89
2023-05-10T08:17:22.066Z,19.67
2023-05-10T08:19:26.530Z,19.48
2023-05-10T08:21:29.801Z,19.31
2023-05-10T08:23:34.234Z,19.02
2023-05-10T08:25:38.601Z,19.28
2023-05-10T08:27:41.767Z,20.11
2023-05-10T08:29:50.232Z,19.30
2023-05-10T08:31:53.901Z,20.11
2023-05-10T08:33:57.164Z,19.98
2023-05-10T08:36:00.338Z,20.20
2023-05-10T08:38:03.499Z,20.31
2023-05-10T08:40:07.655Z,20.52
2023-05-10T08:42:13.554Z,20.69
2023-05-10T08:44:19.181Z,20.91
2023-05-10T08:46:23.702Z,21.29
2023-05-10T08:48:27.181Z,20.80
2023-05-10T08:50:30.435Z,20.23
2023-05-10T08:52:35.017Z,20.47
2023-05-10T08:54:40.353Z,19.86
2023-05-10T08:56:43.392Z,19.83
2023-05-10T08:58:48.449Z,19.22
2023-05-10T09:00:53.355Z,18.54
2023-05-10T09:02:56.793Z,18.36
2023-05-10T09:05:01.510Z,18.65
2023-05-10T09:07:04.657Z,18.76
2023-05-10T09:09:07.961Z,18.89
2023-05-10T09:11:11.316Z,19.75
2023-05-10T09:13:16.112Z,19.84
2023-05-10T09:15:20.994Z,19.35
2023-05-10T09:17:26.592Z,19.43
2023-05-10T09:19:32.717Z,19.24
2023-05-10T09:21:37.737Z,19.69
2023-05-10T09:23:40.695Z,19.23
2023-05-10T09:25:44.160Z,19.60
2023-05-10T09:27:48.597Z,19.84
2023-05-10T09:29:55.523Z,20.09
2023-05-10T09:31:59.998Z,20.42
2023-05-10T09:34:03.109Z,20.27
2023-05-10T09:36:09.448Z,20.32
2023-05-10T09:38:13.793Z,20.65
2023-05-10T09:40:19.714Z,20.83
2023-05-10T09:42:22.825Z,21.11
2023-05-10T09:44:27.673Z,21.13
2023-05-10T09:46:30.901Z,21.18
2023-05-10T09:48:35.371Z,21.42
2023-05-10T09:50:38.707Z,21.57
2023-05-10T09:52:49.866Z,21.45
2023-05-10T09:54:55.476Z,21.61
2023-05-10T09:56:58.566Z,21.59
2023-05-10T09:59:04.742Z,21.78
2023-05-10T10:01:13.303Z,21.55
2023-05-10T10:03:17.748Z,21.99
2023-05-10T10:05:22.300Z,22.13
2023-05-10T10:07:27.916Z,22.04
2023-05-10T10:09:31.080Z,22.30
2023-05-10T10:11:34.319Z,21.61
2023-05-10T10:13:37.344Z,21.78
2023-05-10T10:15:40.707Z,21.07
2023-05-10T10:17:45.621Z,21.95
2023-05-10T10:19:50.689Z,22.06
2023-05-10T10:21:55.098Z,22.22
2023-05-10T10:23:58.208Z,22.50
2023-05-10T10:26:02.042Z,22.72
2023-05-10T10:28:19.700Z,22.68
2023-05-10T10:30:28.350Z,22.63
2023-05-10T10:32:39.846Z,22.86
2023-05-10T10:34:43.202Z,23.10
2023-05-10T10:36:48.568Z,23.10
2023-05-10T10:39:03.163Z,23.22
2023-05-10T10:41:13.856Z,22.97
2023-05-10T10:43:27.638Z,22.96
2023-05-10T10:45:31.994Z,22.55
2023-05-10T10:47:34.941Z,22.16
2023-05-10T10:49:46.310Z,22.44
2023-05-10T10:52:16.852Z,22.48
2023-05-10T10:54:30.707Z,22.34
2023-05-10T10:56:35.769Z,22.46
2023-05-10T10:58:40.983Z,22.44
2023-05-10T11:00:46.422Z,22.81
2023-05-10T11:02:52.920Z,22.54
2023-05-10T11:04:56.184Z,22.44
2023-05-10T11:07:20.684Z,21.96
2023-05-10T11:09:26.914Z,21.89
2023-05-10T11:11:31.587Z,21.71
2023-05-10T11:13:36.522Z,22.37
2023-05-10T11:15:41.695Z,22.96
2023-05-10T11:17:44.868Z,22.06
2023-05-10T11:20:08.592Z,22.30
2023-05-10T11:22:15.266Z,22.42
2023-05-10T11:24:20.065Z,21.92
2023-05-10T11:26:26.514Z,22.79
2023-05-10T11:28:29.872Z,22.94
2023-05-10T11:30:33.605Z,23.68
2023-05-10T11:32:38.976Z,22.70
2023-05-10T11:34:42.246Z,22.62
2023-05-10T11:36:45.411Z,21.84
2023-05-10T11:38:48.652Z,21.63
2023-05-10T11:40:54.406Z,22.11
2023-05-10T11:42:59.575Z,22.22
2023-05-10T11:45:03.195Z,22.41
2023-05-10T11:47:07.040Z,22.00
2023-05-10T11:49:10.174Z,21.33
2023-05-10T11:51:14.203Z,21.74
2023-05-10T11:53:17.208Z,20.65
2023-05-10T11:55:20.759Z,20.96
2023-05-10T11:57:29.150Z,20.32
2023-05-10T11:59:34.776Z,20.36
2023-05-10T12:01:38.793Z,21.05
2023-05-10T12:03:42.843Z,21.17
2023-05-10T12:05:45.912Z,20.70
2023-05-10T12:07:49.308Z,19.96
2023-05-10T12:10:13.112Z,20.67
2023-05-10T12:12:18.531Z,20.52
2023-05-10T12:14:22.621Z,20.82
2023-05-10T12:16:29.125Z,20.78
2023-05-10T12:18:34.420Z,20.95
2023-05-10T12:20:37.648Z,21.07
2023-05-10T12:22:41.499Z,20.23
2023-05-10T12:24:44.663Z,20.23
2023-05-10T12:26:49.332Z,19.71
2023-05-10T12:28:52.992Z,19.76
2023-05-10T12:30:56.794Z,20.24
2023-05-10T12:33:11.181Z,20.46
2023-05-10T12:35:15.343Z,20.87
2023-05-10T12:37:18.315Z,21.15
2023-05-10T12:39:21.265Z,20.73
2023-05-10T12:41:24.586Z,20.53
2023-05-10T12:43:27.890Z,20.71
2023-05-10T12:45:31.665Z,20.70
2023-05-10T12:47:35.070Z,20.09
2023-05-10T12:49:40.915Z,20.20
2023-05-10T12:51:45.650Z,20.24
2023-05-10T12:53:49.718Z,19.67
2023-05-10T12:55:53.253Z,19.79
2023-05-10T12:57:57.375Z,19.87
2023-05-10T13:00:00.818Z,20.17
2023-05-10T13:02:03.828Z,20.53
2023-05-10T13:04:09.565Z,20.68
2023-05-10T13:06:15.836Z,20.10
2023-05-10T13:08:18.981Z,20.76
2023-05-10T13:10:23.540Z,20.86
2023-05-10T13:12:26.624Z,20.70
2023-05-10T13:14:30.191Z,20.49
2023-05-10T13:16:33.754Z,20.76
2023-05-10T13:18:36.895Z,20.43
2023-05-10T13:20:40.701Z,20.92
2023-05-10T13:22:45.320Z,21.38
2023-05-10T13:24:48.657Z,21.58
2023-05-10T13:26:51.925Z,22.18
2023-05-10T13:28:56.514Z,21.89
2023-05-10T13:31:02.094Z,22.35
2023-05-10T13:33:06.308Z,22.62
2023-05-10T13:35:12.035Z,22.36
2023-05-10T13:37:16.035Z,22.18
2023-05-10T13:39:20.438Z,21.60
2023-05-10T13:41:23.741Z,21.78
2023-05-10T13:43:27.475Z,21.62
2023-05-10T13:45:31.624Z,21.81
2023-05-10T13:47:34.540Z,21.39
2023-05-10T13:49:37.497Z,21.49
2023-05-10T13:51:40.480Z,21.62
2023-05-10T13:53:43.849Z,22.07
2023-05-10T13:55:48.401Z,21.93
2023-05-10T13:57:51.419Z,21.96
2023-05-10T13:59:55.919Z,21.83
2023-05-10T14:02:00.807Z,22.26
2023-05-10T14:04:04.511Z,22.16
2023-05-10T14:06:08.406Z,22.07
2023-05-10T14:08:11.909Z,21.45
2023-05-10T14:10:14.976Z,21.56
2023-05-10T14:12:19.751Z,21.63
2023-05-10T14:14:22.802Z,21.78
2023-05-10T14:16:25.914Z,21.94
2023-05-10T14:18:29.307Z,21.96
2023-05-10T14:20:34.948Z,21.94
2023-05-10T14:22:40.454Z,21.36
2023-05-10T14:24:47.717Z,21.59
2023-05-10T14:26:54.712Z,21.96
2023-05-10T14:29:00.030Z,22.09
2023-05-10T14:31:03.415Z,21.82
2023-05-10T14:33:08.797Z,21.92
2023-05-10T14:35:13.396Z,21.66
2023-05-10T14:37:16.710Z,22.22
2023-05-10T14:39:20.893Z,22.32
2023-05-10T14:41:25.757Z,22.19
2023-05-10T14:43:29.240Z,22.41
2023-05-10T14:45:33.913Z,22.46
2023-05-10T14:47:38.358Z,22.37
2023-05-10T14:49:42.179Z,22.42
2023-05-10T14:51:46.176Z,22.17
2023-05-10T14:53:49.580Z,22.26
2023-05-10T15:00:06.322Z,22.23
2023-05-10T15:02:11.850Z,22.16
2023-05-10T15:04:17.350Z,21.63
2023-05-10T15:06:25.988Z,21.93
2023-05-10T15:08:29.178Z,22.12
2023-05-10T15:10:34.463Z,22.33
2023-05-10T15:12:37.668Z,22.30
2023-05-10T15:14:40.702Z,22.45
2023-05-10T15:16:43.752Z,22.55
2023-05-10T15:18:48.097Z,22.68
2023-05-10T15:20:51.591Z,22.53
2023-05-10T15:22:54.912Z,22.67
2023-05-10T15:24:58.114Z,22.62
2023-05-10T15:27:01.021Z,22.71
2023-05-10T15:29:04.066Z,22.77
2023-05-10T15:31:07.192Z,22.85
2023-05-10T15:33:11.898Z,22.98
2023-05-10T15:35:16.308Z,22.50
2023-05-10T15:37:19.574Z,22.56
2023-05-10T15:39:22.519Z,22.82
2023-05-10T15:41:25.695Z,22.89
2023-05-10T15:43:28.631Z,22.91
2023-05-10T15:45:31.616Z,22.24
2023-05-10T15:47:35.237Z,22.72
2023-05-10T15:49:38.455Z,22.59
2023-05-10T15:51:43.267Z,22.45
2023-05-10T15:53:56.832Z,22.23
2023-05-10T15:56:09.321Z,22.36
2023-05-10T15:58:12.794Z,22.26
2023-05-10T16:00:16.933Z,22.46
2023-05-10T16:02:19.817Z,22.60
2023-05-10T16:04:22.718Z,22.67
2023-05-10T16:06:25.574Z,22.73
2023-05-10T16:08:30.748Z,22.65
2023-05-10T16:10:34.370Z,21.86
2023-05-10T16:12:37.315Z,21.98
2023-05-10T16:14:40.208Z,22.01
2023-05-10T16:16:43.379Z,21.68
2023-05-10T16:18:46.476Z,21.76
2023-05-10T16:20:49.542Z,21.96
2023-05-10T16:22:52.542Z,21.95
2023-05-10T16:24:58.015Z,22.01
2023-05-10T16:27:01.065Z,22.08
2023-05-10T16:29:04.149Z,22.04
2023-05-10T16:31:07.139Z,22.09
2023-05-10T16:33:10.167Z,22.04
2023-05-10T16:35:13.241Z,22.18
2023-05-10T16:37:16.341Z,22.16
2023-05-10T16:39:19.307Z,22.20
2023-05-10T16:41:24.656Z,22.07
2023-05-10T16:43:28.716Z,22.04
2023-05-10T16:49:43.502Z,21.98
2023-05-10T16:51:46.724Z,21.50
2023-05-10T16:53:49.853Z,21.62
2023-05-10T16:55:52.836Z,21.77
2023-05-10T16:58:00.924Z,21.56
2023-05-10T17:00:04.496Z,21.58
2023-05-10T17:02:07.962Z,21.38
2023-05-10T17:04:11.044Z,21.26
2023-05-10T17:06:14.353Z,21.22
2023-05-10T17:08:17.507Z,21.38
2023-05-10T17:10:21.055Z,21.42
2023-05-10T17:12:24.708Z,21.22
2023-05-10T17:14:29.058Z,21.17
2023-05-10T17:16:32.105Z,21.05
2023-05-10T17:18:35.463Z,20.90
2023-05-10T17:20:39.090Z,20.89
2023-05-10T17:22:42.758Z,21.04
2023-05-10T17:24:46.698Z,21.03
2023-05-10T17:26:49.666Z,21.07
2023-05-10T17:28:54.485Z,20.99
2023-05-10T17:30:59.689Z,21.02
2023-05-10T17:33:02.771Z,20.73
2023-05-10T17:35:06.855Z,20.82
2023-05-10T17:37:10.232Z,20.63
2023-05-10T17:39:15.106Z,20.40
2023-05-10T17:41:21.802Z,20.34
2023-05-10T17:43:26.090Z,20.19
2023-05-10T17:45:29.056Z,20.34
2023-05-10T17:47:36.377Z,20.35
2023-05-10T17:49:40.853Z,20.32
2023-05-10T17:51:48.079Z,20.17
2023-05-10T17:53:51.362Z,20.18
2023-05-10T17:55:58.067Z,20.18
2023-05-10T17:58:01.802Z,20.19
2023-05-10T18:00:08.720Z,20.08
2023-05-10T18:02:11.607Z,20.05
2023-05-10T18:04:16.229Z,19.96
2023-05-10T18:06:19.661Z,19.98
2023-05-10T18:08:26.991Z,19.69
2023-05-10T18:10:30.527Z,19.42
2023-05-10T18:12:33.916Z,19.44
2023-05-10T18:14:41.194Z,19.39
2023-05-10T18:16:45.063Z,19.20
2023-05-10T18:18:48.166Z,18.81
2023-05-10T18:20:56.693Z,18.74
2023-05-10T18:23:00.626Z,18.68
2023-05-10T18:25:03.828Z,18.56
2023-05-10T18:27:09.844Z,18.52
2023-05-10T18:29:13.057Z,18.29
2023-05-10T18:31:16.532Z,18.35
2023-05-10T18:33:19.913Z,18.29
2023-05-10T18:35:25.004Z,18.20
2023-05-10T18:37:30.116Z,18.10
2023-05-10T18:39:33.376Z,18.07
2023-05-10T18:41:36.402Z,18.02
2023-05-10T18:43:39.363Z,17.93
2023-05-10T18:45:42.260Z,17.81
2023-05-10T18:47:45.249Z,17.81
2023-05-10T18:49:48.777Z,17.77
2023-05-10T18:51:52.782Z,17.68
2023-05-10T18:53:57.054Z,17.69
2023-05-10T18:56:00.512Z,17.65
2023-05-10T18:58:03.565Z,17.68
2023-05-10T19:00:08.606Z,17.65
2023-05-10T19:02:11.753Z,17.63
2023-05-10T19:04:14.838Z,17.57
2023-05-10T19:06:19.434Z,17.47
2023-05-10T19:08:22.384Z,17.41
2023-05-10T19:10:27.579Z,17.49
2023-05-10T19:12:31.583Z,17.47
2023-05-10T19:14:36.231Z,17.50
2023-05-10T19:16:40.523Z,17.47
2023-05-10T19:18:44.151Z,17.23
2023-05-10T19:20:48.021Z,16.67
2023-05-10T19:23:08.348Z,16.28
2023-05-10T19:25:13.130Z,16.48
2023-05-10T19:27:17.597Z,16.71
2023-05-10T19:29:20.613Z,16.66
2023-05-10T19:31:23.539Z,16.57
2023-05-10T19:33:26.679Z,16.69
2023-05-10T19:35:29.736Z,16.74
2023-05-10T19:37:32.878Z,16.73
2023-05-10T19:39:36.028Z,16.58
2023-05-10T19:41:39.018Z,16.35
2023-05-10T19:43:43.738Z,16.53
2023-05-10T19:45:46.792Z,16.67
2023-05-10T19:47:50.149Z,16.41
2023-05-10T19:49:53.213Z,16.56
2023-05-10T19:51:56.401Z,16.60
2023-05-10T19:54:00.518Z,16.25
2023-05-10T19:56:06.667Z,16.22
2023-05-10T19:58:09.852Z,16.25
2023-05-10T20:00:15.950Z,16.48
2023-05-10T20:02:18.929Z,16.23
2023-05-10T20:04:23.215Z,16.50
2023-05-10T20:06:27.434Z,16.50
2023-05-10T20:08:31.040Z,16.34
2023-05-10T20:10:34.961Z,16.61
2023-05-10T20:12:38.058Z,16.62
2023-05-10T20:14:41.004Z,16.59
2023-05-10T20:16:45.717Z,16.67
2023-05-10T20:18:48.762Z,16.55
2023-05-10T20:20:55.073Z,16.57
2023-05-10T20:22:58.006Z,16.67
2023-05-10T20:25:00.971Z,16.58
2023-05-10T20:27:04.653Z,16.55
2023-05-10T20:29:09.734Z,16.32
2023-05-10T20:31:13.751Z,16.55
2023-05-10T20:33:19.157Z,16.51
2023-05-10T20:35:22.178Z,16.62
2023-05-10T20:37:27.497Z,16.69
2023-05-10T20:39:30.471Z,16.64
2023-05-10T20:41:33.397Z,16.66
2023-05-10T20:43:36.555Z,16.64
2023-05-10T20:45:39.564Z,16.54
2023-05-10T20:47:42.847Z,16.51
2023-05-10T20:49:47.394Z,16.53
2023-05-10T20:51:51.670Z,16.55
2023-05-10T20:53:57.151Z,16.34
2023-05-10T20:56:00.212Z,16.01
2023-05-10T20:58:04.984Z,15.77
2023-05-10T21:00:12.146Z,15.82
2023-05-10T21:02:15.291Z,16.01
2023-05-10T21:04:18.310Z,16.13
2023-05-10T21:06:22.922Z,16.24
2023-05-10T21:08:28.060Z,16.39
2023-05-10T21:10:31.593Z,16.09
2023-05-10T21:12:34.807Z,16.27
2023-05-10T21:14:37.805Z,16.40
2023-05-10T21:16:40.824Z,16.42
2023-05-10T21:18:44.060Z,16.16
2023-05-10T21:20:46.996Z,16.22
2023-05-10T21:22:51.826Z,16.27
2023-05-10T21:24:57.271Z,16.24
2023-05-10T21:27:01.799Z,16.24
2023-05-10T21:29:09.566Z,16.09
2023-05-10T21:31:14.944Z,16.28
2023-05-10T21:33:17.932Z,16.20
2023-05-10T21:35:21.840Z,16.15
2023-05-10T21:37:25.198Z,16.21
2023-05-10T21:39:29.568Z,16.25
2023-05-10T21:41:32.590Z,16.10
2023-05-10T21:43:37.894Z,15.98
2023-05-10T21:45:41.314Z,15.99
2023-05-10T21:48:07.127Z,16.05
2023-05-10T21:50:12.130Z,16.07
2023-05-10T21:52:15.528Z,16.14
2023-05-10T21:54:20.526Z,16.18
2023-05-10T21:56:32.191Z,16.15
2023-05-10T21:58:35.667Z,15.68
2023-05-10T22:00:41.484Z,15.91
2023-05-10T22:02:44.502Z,15.80
2023-05-10T22:04:49.093Z,15.92
2023-05-10T22:06:52.113Z,16.06
2023-05-10T22:08:55.050Z,15.93
2023-05-10T22:10:58.093Z,15.79
2023-05-10T22:13:02.325Z,15.88
2023-05-10T22:15:10.233Z,15.84
2023-05-10T22:17:15.100Z,15.70
2023-05-10T22:19:18.402Z,15.74
2023-05-10T22:21:21.434Z,15.66
2023-05-10T22:23:25.153Z,15.53
2023-05-10T22:25:28.528Z,15.55
2023-05-10T22:27:31.439Z,15.70
2023-05-10T22:29:36.252Z,15.65
2023-05-10T22:31:39.333Z,15.80
2023-05-10T22:33:42.381Z,15.84
2023-05-10T22:35:45.378Z,15.88
2023-05-10T22:37:48.403Z,15.88
2023-05-10T22:39:51.753Z,15.92
2023-05-10T22:41:55.239Z,15.71
2023-05-10T22:43:58.277Z,15.48
2023-05-10T22:46:02.634Z,15.54
2023-05-10T22:48:06.427Z,15.67
2023-05-10T22:50:10.359Z,15.43
2023-05-10T22:52:13.576Z,15.58
2023-05-10T22:54:16.686Z,15.58
2023-05-10T22:56:20.131Z,15.76
2023-05-10T22:58:23.188Z,15.80
2023-05-10T23:00:26.476Z,15.79
2023-05-10T23:02:32.128Z,15.77
2023-05-10T23:04:35.197Z,15.70
2023-05-10T23:06:39.495Z,15.54
2023-05-10T23:08:43.267Z,15.63
2023-05-10T23:10:46.340Z,15.78
2023-05-10T23:12:49.309Z,15.77
2023-05-10T23:14:52.282Z,15.84
2023-05-10T23:16:55.186Z,15.77
2023-05-10T23:19:00.031Z,15.78
2023-05-10T23:21:03.314Z,15.71
2023-05-10T23:23:06.882Z,15.77
2023-05-10T23:25:11.111Z,15.79
2023-05-10T23:27:14.510Z,15.70
2023-05-10T23:29:17.833Z,15.83
2023-05-10T23:31:20.807Z,15.85
2023-05-10T23:33:24.277Z,15.80
2023-05-10T23:35:28.849Z,15.85
2023-05-10T23:37:31.840Z,15.85
2023-05-10T23:39:34.806Z,15.64
2023-05-10T23:41:38.192Z,15.53
2023-05-10T23:43:41.099Z,15.72
2023-05-10T23:45:44.051Z,15.74
2023-05-10T23:47:46.925Z,15.81
2023-05-10T23:49:51.245Z,15.80
2023-05-10T23:51:55.928Z,15.83
2023-05-10T23:53:59.086Z,15.85
2023-05-10T23:56:04.444Z,15.55
2023-05-10T23:58:07.406Z,15.62
